createdAt,value
2022-08-17T00:00:04.078Z,99.99
2022-08-17T00:01:00.340Z,99.99
2022-08-17T00:02:04.931Z,99.99
2022-08-17T00:03:02.824Z,99.99
2022-08-17T00:04:01.080Z,99.99
2022-08-17T00:05:04.370Z,99.99
2022-08-17T00:06:03.492Z,99.99
2022-08-17T00:07:01.887Z,99.99
2022-08-17T00:08:04.070Z,99.99
2022-08-17T00:09:02.470Z,99.99
2022-08-17T00:10:06.625Z,99.99
2022-08-17T00:11:04.864Z,99.99
2022-08-17T00:12:51.162Z,99.99
2022-08-17T00:13:06.693Z,99.99
2022-08-17T00:14:04.769Z,99.99
2022-08-17T00:15:10.458Z,99.99
2022-08-17T00:16:06.397Z,99.99
2022-08-17T00:17:04.876Z,99.99
2022-08-17T00:19:01.941Z,99.99
2022-08-17T00:19:08.764Z,99.99
2022-08-17T00:20:08.547Z,99.99
2022-08-17T00:21:10.552Z,99.99
2022-08-17T00:22:31.362Z,99.99
2022-08-17T00:23:09.361Z,99.99
2022-08-17T00:24:09.360Z,99.99
2022-08-17T00:25:07.819Z,99.99
2022-08-17T00:26:10.036Z,99.99
2022-08-17T00:27:07.566Z,99.99
2022-08-17T00:28:09.752Z,99.99
2022-08-17T00:29:09.958Z,99.99
2022-08-17T00:30:12.458Z,99.99
2022-08-17T00:31:08.759Z,99.99
2022-08-17T00:33:15.411Z,99.99
2022-08-17T00:33:16.500Z,99.99
2022-08-17T00:34:10.696Z,99.99
2022-08-17T00:35:13.132Z,99.99
2022-08-17T00:36:10.190Z,99.99
2022-08-17T00:37:12.378Z,99.99
2022-08-17T00:38:10.802Z,99.99
2022-08-17T00:39:10.989Z,99.99
2022-08-17T00:40:12.317Z,99.99
2022-08-17T00:41:13.539Z,99.99
2022-08-17T00:42:11.902Z,99.99
2022-08-17T00:43:12.218Z,99.99
2022-08-17T00:44:12.628Z,99.99
2022-08-17T00:45:14.843Z,99.99
2022-08-17T00:46:15.028Z,99.99
2022-08-17T00:47:15.226Z,99.99
2022-08-17T00:48:30.000Z,99.99
2022-08-17T00:49:14.933Z,99.99
2022-08-17T00:50:17.833Z,99.99
2022-08-17T00:51:16.389Z,99.99
2022-08-17T00:52:16.636Z,99.99
2022-08-17T00:53:16.807Z,99.99
2022-08-17T00:54:17.075Z,99.99
2022-08-17T00:55:16.497Z,99.99
2022-08-17T00:56:17.843Z,99.99
2022-08-17T00:57:18.005Z,99.99
2022-08-17T00:58:18.169Z,99.99
2022-08-17T00:59:17.714Z,99.99
2022-08-17T01:00:20.914Z,99.99
2022-08-17T01:01:21.185Z,99.99
2022-08-17T01:02:19.334Z,99.99
2022-08-17T01:03:19.529Z,99.99
2022-08-17T01:04:18.048Z,99.99
2022-08-17T01:05:21.415Z,99.99
2022-08-17T01:06:20.555Z,99.99
2022-08-17T01:07:18.933Z,99.99
2022-08-17T01:08:21.116Z,99.99
2022-08-17T01:09:19.501Z,99.99
2022-08-17T01:11:00.678Z,99.99
2022-08-17T01:11:21.141Z,99.99
2022-08-17T01:12:22.309Z,99.99
2022-08-17T01:13:22.507Z,99.99
2022-08-17T01:14:22.648Z,99.99
2022-08-17T01:15:24.261Z,99.99
2022-08-17T01:16:23.559Z,99.99
2022-08-17T01:17:21.820Z,99.99
2022-08-17T01:18:24.006Z,99.99
2022-08-17T01:19:24.178Z,99.99
2022-08-17T01:20:25.571Z,99.99
2022-08-17T01:21:22.985Z,99.99
2022-08-17T01:22:23.311Z,99.99
2022-08-17T01:23:23.624Z,99.99
2022-08-17T01:24:25.809Z,99.99
2022-08-17T01:25:26.046Z,99.99
2022-08-17T01:26:24.431Z,99.99
2022-08-17T01:27:24.734Z,99.99
2022-08-17T01:28:52.266Z,99.99
2022-08-17T01:29:26.288Z,99.99
2022-08-17T01:30:58.507Z,99.99
2022-08-17T01:31:26.891Z,99.99
2022-08-17T01:32:26.137Z,99.99
2022-08-17T01:33:26.440Z,99.99
2022-08-17T01:34:42.533Z,99.99
2022-08-17T01:35:29.840Z,99.99
2022-08-17T01:36:27.372Z,99.99
2022-08-17T01:37:29.541Z,99.99
2022-08-17T01:38:27.929Z,99.99
2022-08-17T01:39:30.162Z,99.99
2022-08-17T01:40:30.300Z,99.99
2022-08-17T01:41:30.505Z,99.99
2022-08-17T01:42:30.667Z,99.99
2022-08-17T01:43:32.825Z,99.99
2022-08-17T01:44:29.742Z,99.99
2022-08-17T01:45:31.894Z,99.99
2022-08-17T01:46:32.120Z,99.99
2022-08-17T01:47:30.627Z,99.99
2022-08-17T01:48:32.823Z,99.99
2022-08-17T01:49:33.012Z,99.99
2022-08-17T01:50:33.261Z,99.99
2022-08-17T01:51:33.451Z,99.99
2022-08-17T01:52:32.085Z,99.99
2022-08-17T01:53:32.397Z,99.99
2022-08-17T01:54:32.713Z,99.99
2022-08-17T01:55:33.029Z,99.99
2022-08-17T01:56:35.216Z,99.99
2022-08-17T01:57:33.621Z,99.99
2022-08-17T01:58:33.937Z,99.99
2022-08-17T01:59:34.254Z,99.99
2022-08-17T02:01:00.140Z,99.99
2022-08-17T02:01:37.752Z,99.99
2022-08-17T02:02:36.925Z,99.99
2022-08-17T02:03:35.464Z,99.99
2022-08-17T02:04:35.778Z,99.99
2022-08-17T02:05:36.086Z,99.99
2022-08-17T02:06:52.770Z,99.99
2022-08-17T02:07:59.907Z,99.99
2022-08-17T02:08:39.516Z,99.99
2022-08-17T02:09:39.302Z,99.99
2022-08-17T02:10:37.542Z,99.99
2022-08-17T02:11:38.878Z,99.99
2022-08-17T02:12:40.054Z,99.99
2022-08-17T02:13:38.447Z,99.99
2022-08-17T02:14:39.588Z,99.99
2022-08-17T02:15:40.997Z,99.99
2022-08-17T02:16:41.169Z,99.99
2022-08-17T02:17:41.352Z,99.99
2022-08-17T02:18:40.035Z,99.99
2022-08-17T02:19:41.173Z,99.99
2022-08-17T02:20:42.998Z,99.99
2022-08-17T02:21:42.758Z,99.99
2022-08-17T02:22:41.279Z,99.99
2022-08-17T02:23:43.465Z,99.99
2022-08-17T02:25:00.619Z,99.99
2022-08-17T02:25:43.140Z,99.99
2022-08-17T02:26:42.392Z,99.99
2022-08-17T02:27:42.733Z,99.99
2022-08-17T02:28:43.045Z,99.99
2022-08-17T02:29:46.349Z,99.99
2022-08-17T02:30:59.242Z,99.99
2022-08-17T02:31:44.964Z,99.99
2022-08-17T02:32:46.203Z,99.99
2022-08-17T02:33:44.462Z,99.99
2022-08-17T02:34:48.657Z,99.99
2022-08-17T02:35:47.865Z,99.99
2022-08-17T02:36:47.049Z,99.99
2022-08-17T02:37:48.953Z,99.99
2022-08-17T02:38:47.006Z,99.99
2022-08-17T02:39:47.209Z,99.99
2022-08-17T02:40:46.565Z,99.99
2022-08-17T02:41:48.767Z,99.99
2022-08-17T02:42:49.128Z,99.99
2022-08-17T02:43:49.141Z,99.99
2022-08-17T02:44:49.762Z,99.99
2022-08-17T02:45:49.635Z,99.99
2022-08-17T02:46:50.307Z,99.99
2022-08-17T02:47:50.479Z,99.99
2022-08-17T02:48:50.673Z,99.99
2022-08-17T02:49:55.520Z,99.99
2022-08-17T02:50:51.071Z,99.99
2022-08-17T02:51:51.279Z,99.99
2022-08-17T02:53:01.355Z,99.99
2022-08-17T02:53:53.160Z,99.99
2022-08-17T02:54:53.480Z,99.99
2022-08-17T02:55:50.757Z,99.99
2022-08-17T02:56:51.081Z,99.99
2022-08-17T02:57:51.535Z,99.99
2022-08-17T02:58:53.571Z,99.99
2022-08-17T02:59:54.851Z,99.99
2022-08-17T03:00:52.285Z,99.99
2022-08-17T03:01:52.633Z,99.99
2022-08-17T03:02:52.983Z,99.99
2022-08-17T03:03:53.184Z,99.99
2022-08-17T03:04:56.552Z,99.99
2022-08-17T03:05:53.856Z,99.99
2022-08-17T03:06:54.170Z,99.99
2022-08-17T03:07:54.484Z,99.99
2022-08-17T03:08:54.801Z,99.99
2022-08-17T03:09:57.090Z,99.99
2022-08-17T03:10:55.363Z,99.99
2022-08-17T03:11:56.644Z,99.99
2022-08-17T03:12:56.060Z,99.99
2022-08-17T03:13:57.259Z,99.99
2022-08-17T03:14:59.584Z,99.99
2022-08-17T03:15:58.351Z,99.99
2022-08-17T03:16:58.541Z,99.99
2022-08-17T03:17:59.195Z,99.99
2022-08-17T03:18:59.395Z,99.99
2022-08-17T03:19:59.726Z,99.99
2022-08-17T03:20:59.918Z,99.99
2022-08-17T03:22:00.098Z,99.99
2022-08-17T03:23:00.054Z,99.99
2022-08-17T03:23:59.169Z,99.99
2022-08-17T03:25:00.995Z,99.99
2022-08-17T03:25:59.723Z,99.99
2022-08-17T03:27:01.921Z,99.99
2022-08-17T03:28:02.100Z,99.99
2022-08-17T03:29:02.303Z,99.99
2022-08-17T03:30:01.829Z,99.99
2022-08-17T03:31:03.175Z,99.99
2022-08-17T03:32:03.383Z,99.99
2022-08-17T03:33:03.576Z,99.99
2022-08-17T03:34:03.784Z,99.99
2022-08-17T03:35:05.454Z,99.99
2022-08-17T03:36:03.273Z,99.99
2022-08-17T03:37:03.023Z,99.99
2022-08-17T03:38:03.347Z,99.99
2022-08-17T03:39:05.541Z,99.99
2022-08-17T03:40:05.578Z,99.99
2022-08-17T03:41:04.231Z,99.99
2022-08-17T03:42:04.558Z,99.99
2022-08-17T03:43:04.890Z,99.99
2022-08-17T03:44:05.227Z,99.99
2022-08-17T03:45:06.530Z,99.99
2022-08-17T03:46:10.800Z,99.99
2022-08-17T03:47:07.054Z,99.99
2022-08-17T03:48:06.327Z,99.99
2022-08-17T03:49:07.032Z,99.99
2022-08-17T03:50:10.842Z,99.99
2022-08-17T03:51:14.161Z,99.99
2022-08-17T03:52:10.235Z,99.99
2022-08-17T03:53:07.803Z,99.99
2022-08-17T03:54:08.019Z,99.99
2022-08-17T03:55:12.245Z,99.99
2022-08-17T03:56:08.666Z,99.99
2022-08-17T03:57:10.860Z,99.99
2022-08-17T03:58:10.145Z,99.99
2022-08-17T03:59:09.567Z,99.99
2022-08-17T04:00:11.745Z,99.99
2022-08-17T04:01:10.102Z,99.99
2022-08-17T04:02:12.233Z,99.99
2022-08-17T04:03:10.517Z,99.99
2022-08-17T04:04:10.870Z,99.99
2022-08-17T04:05:15.049Z,99.99
2022-08-17T04:06:11.498Z,99.99
2022-08-17T04:07:13.678Z,99.99
2022-08-17T04:08:12.092Z,99.99
2022-08-17T04:09:12.441Z,99.99
2022-08-17T04:10:16.627Z,99.99
2022-08-17T04:11:13.070Z,99.99
2022-08-17T04:12:15.346Z,99.99
2022-08-17T04:13:14.599Z,99.99
2022-08-17T04:14:13.915Z,99.99
2022-08-17T04:15:17.230Z,99.99
2022-08-17T04:16:14.425Z,99.99
2022-08-17T04:17:14.663Z,99.99
2022-08-17T04:18:14.927Z,99.99
2022-08-17T04:19:17.115Z,99.99
2022-08-17T04:20:16.249Z,99.99
2022-08-17T04:21:17.185Z,99.99
2022-08-17T04:22:31.131Z,99.99
2022-08-17T04:23:17.228Z,99.99
2022-08-17T04:24:16.555Z,99.99
2022-08-17T04:25:19.709Z,99.99
2022-08-17T04:26:52.011Z,99.99
2022-08-17T04:27:18.252Z,99.99
2022-08-17T04:28:19.436Z,99.99
2022-08-17T04:29:19.639Z,99.99
2022-08-17T04:30:21.158Z,99.99
2022-08-17T04:31:19.264Z,99.99
2022-08-17T04:32:58.557Z,99.99
2022-08-17T04:33:21.868Z,99.99
2022-08-17T04:34:21.049Z,99.99
2022-08-17T04:35:22.474Z,99.99
2022-08-17T04:36:21.917Z,99.99
2022-08-17T04:37:22.114Z,99.99
2022-08-17T04:38:22.296Z,99.99
2022-08-17T04:39:22.472Z,99.99
2022-08-17T04:40:23.156Z,99.99
2022-08-17T04:41:21.410Z,99.99
2022-08-17T04:42:21.757Z,99.99
2022-08-17T04:43:23.943Z,99.99
2022-08-17T04:44:36.830Z,99.99
2022-08-17T04:45:27.469Z,99.99
2022-08-17T04:46:23.813Z,99.99
2022-08-17T04:47:23.126Z,99.99
2022-08-17T04:48:29.801Z,99.99
2022-08-17T04:49:24.620Z,99.99
2022-08-17T04:50:25.802Z,99.99
2022-08-17T04:51:25.991Z,99.99
2022-08-17T04:52:29.835Z,99.99
2022-08-17T04:53:25.876Z,99.99
2022-08-17T04:54:27.084Z,99.99
2022-08-17T04:55:25.809Z,99.99
2022-08-17T04:56:25.882Z,99.99
2022-08-17T04:57:27.987Z,99.99
2022-08-17T04:58:28.192Z,99.99
2022-08-17T04:59:28.356Z,99.99
2022-08-17T05:00:28.552Z,99.99
2022-08-17T05:01:29.310Z,99.99
2022-08-17T05:02:29.421Z,99.99
2022-08-17T05:03:29.611Z,99.99
2022-08-17T05:04:33.966Z,99.99
2022-08-17T05:05:29.457Z,99.99
2022-08-17T05:06:30.642Z,99.99
2022-08-17T05:07:31.558Z,99.99
2022-08-17T05:08:31.273Z,99.99
2022-08-17T05:09:31.437Z,99.99
2022-08-17T05:10:29.973Z,99.99
2022-08-17T05:11:32.163Z,99.99
2022-08-17T05:12:30.466Z,99.99
2022-08-17T05:13:32.665Z,99.99
2022-08-17T05:14:33.876Z,99.99
2022-08-17T05:15:36.086Z,99.99
2022-08-17T05:16:33.217Z,99.99
2022-08-17T05:17:31.893Z,99.99
2022-08-17T05:18:34.094Z,99.99
2022-08-17T05:19:32.398Z,99.99
2022-08-17T05:20:36.570Z,99.99
2022-08-17T05:21:34.795Z,99.99
2022-08-17T05:22:35.119Z,99.99
2022-08-17T05:23:43.013Z,99.99
2022-08-17T05:24:38.430Z,99.99
2022-08-17T05:25:34.559Z,99.99
2022-08-17T05:26:34.492Z,99.99
2022-08-17T05:27:36.679Z,99.99
2022-08-17T05:28:37.379Z,99.99
2022-08-17T05:29:35.983Z,99.99
2022-08-17T05:30:37.467Z,99.99
2022-08-17T05:31:37.858Z,99.99
2022-08-17T05:32:40.340Z,99.99
2022-08-17T05:33:43.925Z,99.99
2022-08-17T05:34:37.585Z,99.99
2022-08-17T05:35:36.874Z,99.99
2022-08-17T05:36:44.115Z,99.99
2022-08-17T05:37:38.393Z,99.99
2022-08-17T05:38:40.743Z,99.99
2022-08-17T05:39:39.780Z,99.99
2022-08-17T05:40:38.189Z,99.15
2022-08-17T05:41:40.383Z,98.74
2022-08-17T05:42:38.686Z,98.44
2022-08-17T05:43:39.747Z,98.65
2022-08-17T05:44:39.162Z,98.74
2022-08-17T05:45:54.888Z,98.54
2022-08-17T05:46:42.554Z,98.69
2022-08-17T05:47:40.000Z,99.19
2022-08-17T05:48:43.185Z,99.40
2022-08-17T05:49:43.360Z,99.55
2022-08-17T05:50:40.813Z,99.65
2022-08-17T05:51:43.030Z,99.65
2022-08-17T05:52:43.229Z,99.55
2022-08-17T05:53:44.677Z,99.40
2022-08-17T05:54:41.876Z,98.95
2022-08-17T05:55:42.111Z,98.10
2022-08-17T05:56:42.357Z,97.45
2022-08-17T05:57:47.549Z,96.65
2022-08-17T05:58:44.716Z,97.25
2022-08-17T05:59:43.152Z,96.85
2022-08-17T06:00:45.410Z,96.85
2022-08-17T06:01:43.734Z,96.80
2022-08-17T06:02:48.219Z,96.76
2022-08-17T06:03:47.300Z,96.31
2022-08-17T06:04:44.507Z,95.86
2022-08-17T06:05:46.699Z,95.26
2022-08-17T06:06:45.008Z,95.36
2022-08-17T06:07:47.199Z,95.26
2022-08-17T06:08:48.370Z,95.66
2022-08-17T06:09:45.787Z,95.86
2022-08-17T06:10:46.081Z,95.72
2022-08-17T06:11:46.261Z,95.32
2022-08-17T06:12:46.539Z,94.71
2022-08-17T06:13:50.685Z,95.42
2022-08-17T06:14:47.040Z,95.32
2022-08-17T06:15:48.194Z,95.42
2022-08-17T06:16:48.623Z,96.12
2022-08-17T06:17:48.771Z,96.53
2022-08-17T06:18:51.244Z,95.04
2022-08-17T06:19:48.438Z,94.24
2022-08-17T06:20:48.691Z,91.50
2022-08-17T06:21:48.945Z,91.06
2022-08-17T06:22:51.311Z,90.26
2022-08-17T06:23:50.978Z,89.92
2022-08-17T06:24:51.725Z,89.28
2022-08-17T06:25:50.030Z,88.34
2022-08-17T06:26:52.192Z,87.64
2022-08-17T06:27:53.363Z,87.58
2022-08-17T06:28:51.816Z,88.92
2022-08-17T06:29:51.136Z,89.32
2022-08-17T06:30:59.610Z,89.14
2022-08-17T06:31:54.577Z,88.79
2022-08-17T06:32:53.766Z,87.70
2022-08-17T06:33:55.209Z,87.84
2022-08-17T06:34:52.541Z,88.24
2022-08-17T06:35:52.814Z,88.73
2022-08-17T06:36:53.102Z,88.20
2022-08-17T06:37:55.299Z,87.90
2022-08-17T06:38:56.748Z,88.24
2022-08-17T06:39:55.703Z,89.07
2022-08-17T06:40:56.362Z,89.38
2022-08-17T06:41:55.693Z,89.92
2022-08-17T06:43:05.338Z,90.42
2022-08-17T06:43:57.783Z,91.02
2022-08-17T06:44:55.633Z,91.26
2022-08-17T06:45:55.848Z,92.10
2022-08-17T06:46:58.047Z,92.50
2022-08-17T06:47:56.362Z,92.94
2022-08-17T06:48:57.573Z,93.44
2022-08-17T06:49:56.869Z,93.74
2022-08-17T06:50:57.250Z,93.55
2022-08-17T06:51:58.932Z,93.74
2022-08-17T06:52:59.949Z,93.44
2022-08-17T06:53:59.375Z,93.35
2022-08-17T06:54:58.173Z,93.90
2022-08-17T06:56:00.389Z,93.66
2022-08-17T06:57:00.581Z,92.56
2022-08-17T06:58:00.735Z,91.56
2022-08-17T06:59:02.247Z,91.80
2022-08-17T07:00:01.132Z,92.50
2022-08-17T07:01:01.884Z,92.55
2022-08-17T07:02:02.017Z,93.55
2022-08-17T07:03:00.556Z,94.24
2022-08-17T07:04:05.009Z,93.65
2022-08-17T07:05:01.923Z,93.69
2022-08-17T07:06:03.116Z,94.09
2022-08-17T07:07:03.305Z,94.35
2022-08-17T07:08:03.550Z,93.55
2022-08-17T07:09:04.227Z,93.70
2022-08-17T07:10:04.493Z,92.50
2022-08-17T07:11:04.593Z,92.60
2022-08-17T07:12:04.754Z,92.70
2022-08-17T07:13:05.452Z,91.86
2022-08-17T07:14:05.696Z,90.66
2022-08-17T07:15:05.880Z,91.66
2022-08-17T07:16:06.058Z,91.02
2022-08-17T07:17:06.263Z,90.72
2022-08-17T07:18:06.458Z,90.28
2022-08-17T07:19:07.163Z,90.17
2022-08-17T07:20:05.496Z,89.98
2022-08-17T07:21:05.699Z,89.53
2022-08-17T07:22:07.886Z,89.03
2022-08-17T07:23:08.072Z,88.24
2022-08-17T07:24:08.262Z,88.34
2022-08-17T07:25:06.838Z,87.94
2022-08-17T07:26:07.086Z,88.04
2022-08-17T07:27:09.268Z,88.24
2022-08-17T07:28:09.457Z,87.04
2022-08-17T07:29:09.635Z,86.38
2022-08-17T07:30:11.111Z,87.23
2022-08-17T07:31:10.525Z,88.68
2022-08-17T07:32:10.725Z,86.30
2022-08-17T07:33:12.540Z,83.59
2022-08-17T07:34:09.337Z,81.06
2022-08-17T07:35:11.774Z,80.36
2022-08-17T07:36:11.713Z,80.57
2022-08-17T07:37:11.906Z,81.66
2022-08-17T07:38:25.834Z,81.02
2022-08-17T07:39:13.283Z,81.32
2022-08-17T07:40:16.460Z,80.77
2022-08-17T07:41:11.225Z,81.92
2022-08-17T07:42:13.414Z,81.02
2022-08-17T07:43:19.925Z,81.12
2022-08-17T07:44:14.883Z,82.06
2022-08-17T07:45:12.352Z,82.26
2022-08-17T07:46:14.560Z,83.39
2022-08-17T07:47:14.753Z,82.40
2022-08-17T07:48:15.717Z,82.84
2022-08-17T07:49:15.191Z,83.97
2022-08-17T07:50:15.355Z,83.23
2022-08-17T07:51:14.050Z,82.56
2022-08-17T07:52:47.796Z,81.18
2022-08-17T07:53:19.461Z,80.47
2022-08-17T07:54:16.686Z,79.82
2022-08-17T07:55:16.878Z,80.25
2022-08-17T07:56:15.442Z,79.96
2022-08-17T07:57:15.691Z,78.86
2022-08-17T07:58:16.805Z,79.46
2022-08-17T07:59:18.162Z,79.85
2022-08-17T08:00:18.349Z,78.27
2022-08-17T08:01:17.802Z,78.90
2022-08-17T08:02:17.224Z,79.90
2022-08-17T08:03:18.370Z,80.02
2022-08-17T08:04:29.156Z,78.25
2022-08-17T08:05:48.671Z,76.92
2022-08-17T08:06:20.131Z,75.90
2022-08-17T08:07:18.576Z,74.74
2022-08-17T08:08:19.691Z,73.28
2022-08-17T08:09:21.075Z,74.04
2022-08-17T08:10:19.395Z,74.18
2022-08-17T08:11:21.782Z,74.48
2022-08-17T08:12:20.875Z,74.08
2022-08-17T08:13:20.307Z,73.49
2022-08-17T08:14:20.557Z,73.38
2022-08-17T08:15:20.802Z,74.31
2022-08-17T08:16:22.977Z,74.84
2022-08-17T08:17:22.168Z,75.31
2022-08-17T08:18:53.754Z,77.04
2022-08-17T08:19:22.860Z,78.90
2022-08-17T08:20:51.338Z,78.94
2022-08-17T08:21:25.341Z,79.33
2022-08-17T08:22:22.672Z,79.93
2022-08-17T08:23:23.885Z,79.10
2022-08-17T08:24:25.126Z,79.14
2022-08-17T08:25:24.457Z,79.93
2022-08-17T08:26:25.635Z,78.90
2022-08-17T08:27:25.821Z,78.76
2022-08-17T08:28:25.748Z,77.53
2022-08-17T08:29:24.596Z,77.69
2022-08-17T08:30:24.826Z,76.53
2022-08-17T08:31:25.930Z,74.44
2022-08-17T08:32:27.268Z,75.08
2022-08-17T08:33:26.534Z,75.95
2022-08-17T08:34:54.748Z,76.80
2022-08-17T08:35:27.067Z,76.33
2022-08-17T08:37:02.149Z,74.71
2022-08-17T08:37:34.441Z,74.51
2022-08-17T08:38:28.834Z,73.98
2022-08-17T08:39:27.183Z,74.57
2022-08-17T08:40:29.333Z,73.82
2022-08-17T08:41:27.642Z,73.78
2022-08-17T08:42:29.847Z,73.35
2022-08-17T08:43:29.124Z,72.75
2022-08-17T08:45:01.151Z,70.45
2022-08-17T08:45:31.631Z,71.08
2022-08-17T08:46:30.836Z,72.26
2022-08-17T08:47:30.979Z,72.92
2022-08-17T08:48:52.775Z,71.80
2022-08-17T08:49:59.572Z,71.30
2022-08-17T08:50:38.455Z,71.93
2022-08-17T08:51:33.118Z,72.78
2022-08-17T08:52:30.578Z,70.45
2022-08-17T08:53:31.297Z,68.86
2022-08-17T08:54:31.091Z,69.59
2022-08-17T08:55:33.291Z,70.61
2022-08-17T08:56:31.639Z,70.38
2022-08-17T08:57:34.492Z,68.66
2022-08-17T08:58:41.702Z,68.76
2022-08-17T08:59:33.420Z,67.94
2022-08-17T09:00:34.621Z,67.84
2022-08-17T09:01:33.137Z,68.07
2022-08-17T09:02:34.832Z,66.46
2022-08-17T09:03:51.519Z,66.85
2022-08-17T09:04:50.185Z,67.25
2022-08-17T09:05:37.251Z,67.58
2022-08-17T09:06:39.422Z,68.53
2022-08-17T09:07:36.642Z,68.07
2022-08-17T09:08:38.246Z,69.12
2022-08-17T09:09:37.090Z,70.25
2022-08-17T09:10:37.778Z,69.19
2022-08-17T09:12:02.521Z,71.60
2022-08-17T09:12:37.415Z,71.70
2022-08-17T09:13:40.628Z,72.20
2022-08-17T09:14:45.099Z,71.70
2022-08-17T09:15:38.233Z,71.47
2022-08-17T09:16:39.395Z,71.57
2022-08-17T09:17:39.575Z,73.16
2022-08-17T09:19:00.337Z,74.31
2022-08-17T09:19:39.536Z,74.31
2022-08-17T09:20:40.650Z,72.99
2022-08-17T09:21:47.908Z,71.83
2022-08-17T09:22:40.191Z,71.11
2022-08-17T09:23:40.905Z,69.29
2022-08-17T09:24:41.257Z,69.26
2022-08-17T09:25:41.918Z,67.44
2022-08-17T09:26:42.111Z,64.91
2022-08-17T09:27:40.659Z,66.33
2022-08-17T09:28:41.699Z,66.63
2022-08-17T09:29:41.185Z,65.21
2022-08-17T09:30:43.329Z,63.86
2022-08-17T09:31:49.150Z,66.95
2022-08-17T09:32:42.989Z,64.71
2022-08-17T09:33:45.320Z,67.48
2022-08-17T09:34:44.540Z,66.95
2022-08-17T09:35:42.783Z,64.55
2022-08-17T09:36:44.972Z,64.75
2022-08-17T09:37:45.174Z,65.83
2022-08-17T09:38:46.636Z,66.79
2022-08-17T09:39:45.602Z,64.62
2022-08-17T09:40:45.845Z,64.69
2022-08-17T09:41:49.265Z,64.56
2022-08-17T09:42:44.729Z,63.37
2022-08-17T09:43:48.899Z,64.29
2022-08-17T09:44:47.131Z,64.81
2022-08-17T09:45:47.308Z,65.27
2022-08-17T09:46:47.569Z,65.11
2022-08-17T09:47:47.799Z,63.24
2022-08-17T09:48:50.532Z,62.06
2022-08-17T09:49:48.720Z,59.27
2022-08-17T09:51:04.140Z,59.58
2022-08-17T09:51:48.381Z,59.26
2022-08-17T09:52:49.563Z,60.17
2022-08-17T09:53:50.833Z,59.75
2022-08-17T09:54:48.867Z,59.97
2022-08-17T09:55:48.604Z,60.10
2022-08-17T09:57:05.941Z,62.30
2022-08-17T09:57:50.319Z,62.30
2022-08-17T09:58:52.398Z,61.87
2022-08-17T09:59:49.718Z,64.00
2022-08-17T10:00:51.957Z,64.36
2022-08-17T10:01:50.378Z,65.34
2022-08-17T10:02:50.629Z,66.69
2022-08-17T10:03:53.797Z,64.88
2022-08-17T10:04:51.132Z,63.90
2022-08-17T10:05:56.478Z,65.37
2022-08-17T10:06:53.514Z,64.22
2022-08-17T10:07:52.132Z,64.19
2022-08-17T10:08:55.279Z,64.55
2022-08-17T10:09:52.477Z,64.88
2022-08-17T10:10:56.547Z,63.69
2022-08-17T10:11:52.995Z,64.05
2022-08-17T10:12:55.205Z,63.95
2022-08-17T10:13:59.492Z,66.49
2022-08-17T10:14:55.591Z,64.98
2022-08-17T10:15:55.778Z,63.96
2022-08-17T10:16:54.338Z,65.80
2022-08-17T10:17:54.580Z,65.70
2022-08-17T10:18:56.394Z,65.41
2022-08-17T10:19:57.075Z,59.88
2022-08-17T10:20:55.733Z,60.74
2022-08-17T10:22:01.136Z,63.43
2022-08-17T10:22:56.063Z,62.68
2022-08-17T10:23:59.224Z,64.48
2022-08-17T10:25:21.638Z,65.37
2022-08-17T10:25:57.806Z,65.37
2022-08-17T10:26:57.586Z,64.18
2022-08-17T10:27:59.304Z,64.39
2022-08-17T10:29:01.466Z,64.39
2022-08-17T10:29:58.887Z,63.86
2022-08-17T10:31:23.316Z,63.96
2022-08-17T10:31:59.463Z,61.75
2022-08-17T10:33:00.656Z,63.33
2022-08-17T10:34:00.035Z,64.15
2022-08-17T10:34:59.361Z,65.53
2022-08-17T10:35:59.598Z,65.14
2022-08-17T10:37:01.839Z,66.19
2022-08-17T10:38:00.148Z,66.39
2022-08-17T10:39:02.360Z,66.29
2022-08-17T10:40:00.716Z,65.80
2022-08-17T10:41:00.971Z,66.65
2022-08-17T10:42:03.128Z,66.46
2022-08-17T10:43:03.340Z,66.55
2022-08-17T10:44:38.095Z,65.27
2022-08-17T10:45:03.099Z,63.62
2022-08-17T10:46:10.317Z,64.22
2022-08-17T10:47:03.667Z,64.22
2022-08-17T10:48:06.679Z,63.00
2022-08-17T10:49:03.298Z,62.97
2022-08-17T10:50:03.538Z,63.24
2022-08-17T10:51:05.750Z,62.05
2022-08-17T10:52:05.913Z,60.87
2022-08-17T10:53:06.096Z,61.49
2022-08-17T10:54:06.279Z,61.52
2022-08-17T10:55:06.974Z,60.93
2022-08-17T10:56:07.163Z,63.59
2022-08-17T10:57:07.355Z,62.51
2022-08-17T10:58:07.552Z,62.74
2022-08-17T10:59:06.252Z,63.23
2022-08-17T11:00:06.507Z,63.03
2022-08-17T11:01:06.779Z,62.41
2022-08-17T11:02:08.932Z,62.21
2022-08-17T11:03:07.268Z,63.59
2022-08-17T11:04:07.526Z,65.44
2022-08-17T11:05:07.759Z,63.93
2022-08-17T11:06:08.010Z,62.55
2022-08-17T11:07:10.203Z,62.35
2022-08-17T11:08:10.435Z,63.14
2022-08-17T11:09:10.630Z,62.41
2022-08-17T11:10:09.080Z,60.84
2022-08-17T11:11:09.331Z,61.66
2022-08-17T11:12:11.514Z,63.04
2022-08-17T11:13:10.682Z,62.77
2022-08-17T11:14:11.832Z,63.37
2022-08-17T11:15:12.021Z,62.28
2022-08-17T11:16:11.731Z,62.57
2022-08-17T11:17:11.041Z,61.62
2022-08-17T11:18:15.184Z,63.46
2022-08-17T11:19:13.459Z,62.81
2022-08-17T11:20:13.630Z,63.62
2022-08-17T11:21:13.825Z,64.91
2022-08-17T11:22:14.510Z,66.00
2022-08-17T11:23:14.791Z,64.71
2022-08-17T11:24:13.111Z,65.30
2022-08-17T11:25:15.300Z,65.41
2022-08-17T11:26:15.485Z,64.91
2022-08-17T11:27:15.666Z,65.30
2022-08-17T11:28:16.902Z,65.80
2022-08-17T11:29:16.066Z,65.63
2022-08-17T11:30:16.738Z,62.57
2022-08-17T11:31:16.939Z,61.08
2022-08-17T11:32:15.369Z,60.59
2022-08-17T11:33:16.649Z,61.18
2022-08-17T11:34:17.818Z,61.78
2022-08-17T11:35:16.125Z,62.14
2022-08-17T11:36:16.353Z,63.49
2022-08-17T11:37:16.598Z,61.98
2022-08-17T11:38:17.705Z,60.67
2022-08-17T11:39:17.161Z,60.97
2022-08-17T11:40:17.482Z,59.69
2022-08-17T11:41:17.694Z,59.78
2022-08-17T11:42:17.930Z,60.64
2022-08-17T11:43:22.075Z,59.59
2022-08-17T11:44:21.476Z,59.48
2022-08-17T11:45:32.479Z,61.76
2022-08-17T11:46:20.225Z,61.56
2022-08-17T11:47:21.239Z,61.36
2022-08-17T11:48:28.157Z,62.22
2022-08-17T11:49:22.650Z,59.22
2022-08-17T11:50:25.787Z,61.96
2022-08-17T11:51:24.394Z,61.72
2022-08-17T11:52:20.723Z,61.72
2022-08-17T11:53:22.933Z,61.90
2022-08-17T11:54:32.751Z,61.99
2022-08-17T11:55:35.036Z,59.36
2022-08-17T11:56:25.705Z,57.91
2022-08-17T11:57:23.047Z,57.32
2022-08-17T11:58:24.252Z,56.33
2022-08-17T11:59:24.462Z,55.77
2022-08-17T12:00:23.018Z,54.97
2022-08-17T12:01:25.208Z,55.33
2022-08-17T12:02:27.379Z,56.02
2022-08-17T12:03:23.829Z,57.01
2022-08-17T12:04:26.038Z,57.77
2022-08-17T12:05:24.359Z,57.64
2022-08-17T12:06:30.517Z,57.45
2022-08-17T12:07:27.719Z,56.78
2022-08-17T12:08:25.161Z,56.88
2022-08-17T12:09:29.329Z,56.65
2022-08-17T12:10:25.650Z,56.46
2022-08-17T12:11:56.248Z,57.51
2022-08-17T12:12:29.131Z,56.10
2022-08-17T12:13:30.511Z,56.87
2022-08-17T12:14:51.320Z,55.56
2022-08-17T12:15:27.970Z,56.05
2022-08-17T12:16:29.161Z,57.14
2022-08-17T12:17:41.363Z,55.49
2022-08-17T12:18:28.855Z,56.25
2022-08-17T12:19:28.154Z,56.71
2022-08-17T12:20:28.400Z,57.40
2022-08-17T12:21:30.644Z,57.70
2022-08-17T12:22:31.917Z,56.52
2022-08-17T12:23:29.242Z,56.62
2022-08-17T12:24:29.482Z,57.48
2022-08-17T12:25:29.738Z,55.41
2022-08-17T12:26:31.925Z,54.91
2022-08-17T12:28:04.349Z,55.51
2022-08-17T12:28:31.478Z,54.72
2022-08-17T12:29:35.439Z,55.62
2022-08-17T12:30:32.007Z,52.77
2022-08-17T12:31:31.306Z,54.61
2022-08-17T12:32:32.480Z,52.84
2022-08-17T12:33:33.761Z,54.81
2022-08-17T12:34:32.068Z,52.92
2022-08-17T12:35:32.315Z,53.09
2022-08-17T12:36:34.508Z,51.79
2022-08-17T12:37:34.820Z,52.92
2022-08-17T12:38:33.698Z,54.41
2022-08-17T12:39:34.060Z,52.45
2022-08-17T12:40:33.831Z,51.76
2022-08-17T12:41:34.073Z,53.90
2022-08-17T12:42:36.334Z,54.17
2022-08-17T12:43:34.640Z,52.28
2022-08-17T12:44:34.892Z,50.85
2022-08-17T12:45:35.178Z,49.97
2022-08-17T12:46:35.425Z,49.19
2022-08-17T12:47:38.594Z,51.66
2022-08-17T12:48:35.910Z,49.92
2022-08-17T12:49:36.169Z,51.89
2022-08-17T12:50:36.409Z,51.66
2022-08-17T12:51:36.665Z,50.02
2022-08-17T12:52:39.856Z,50.42
2022-08-17T12:53:37.173Z,49.73
2022-08-17T12:54:38.306Z,49.92
2022-08-17T12:55:37.754Z,51.29